sensor_id;sensor_type;location;lat;lon;timestamp;P1;durP1;ratioP1;P2;durP2;ratioP2
30173;SDS011;16985;50.814;8.530;2023-12-28T00:01:45;19.23;;;9.40;;
30173;SDS011;16985;50.814;8.530;2023-12-28T00:04:19;17.85;;;8.85;;
30173;SDS011;16985;50.814;8.530;2023-12-28T00:09:13;14.93;;;8.10;;
30173;SDS011;16985;50.814;8.530;2023-12-28T00:11:39;16.30;;;8.10;;
30173;SDS011;16985;50.814;8.530;2023-12-28T00:14:07;16.45;;;7.93;;
30173;SDS011;16985;50.814;8.530;2023-12-28T00:16:33;13.55;;;7.40;;
30173;SDS011;16985;50.814;8.530;2023-12-28T00:18:59;13.30;;;7.85;;
30173;SDS011;16985;50.814;8.530;2023-12-28T00:21:27;10.57;;;6.63;;
30173;SDS011;16985;50.814;8.530;2023-12-28T00:23:56;10.50;;;5.68;;
30173;SDS011;16985;50.814;8.530;2023-12-28T00:26:22;13.05;;;5.28;;
30173;SDS011;16985;50.814;8.530;2023-12-28T00:28:59;6.70;;;5.07;;
30173;SDS011;16985;50.814;8.530;2023-12-28T00:31:25;7.95;;;5.22;;
30173;SDS011;16985;50.814;8.530;2023-12-28T00:33:51;6.50;;;3.75;;
30173;SDS011;16985;50.814;8.530;2023-12-28T00:36:17;9.40;;;3.67;;
30173;SDS011;16985;50.814;8.530;2023-12-28T00:38:43;6.53;;;3.25;;
30173;SDS011;16985;50.814;8.530;2023-12-28T00:41:09;4.38;;;3.05;;
30173;SDS011;16985;50.814;8.530;2023-12-28T00:43:35;8.82;;;2.63;;
30173;SDS011;16985;50.814;8.530;2023-12-28T00:46:01;7.72;;;2.83;;
30173;SDS011;16985;50.814;8.530;2023-12-28T00:48:27;6.65;;;2.78;;
30173;SDS011;16985;50.814;8.530;2023-12-28T00:50:53;7.47;;;2.53;;
30173;SDS011;16985;50.814;8.530;2023-12-28T00:53:25;6.97;;;3.20;;
30173;SDS011;16985;50.814;8.530;2023-12-28T00:55:52;3.25;;;2.80;;
30173;SDS011;16985;50.814;8.530;2023-12-28T00:58:17;6.38;;;2.83;;
30173;SDS011;16985;50.814;8.530;2023-12-28T01:00:44;6.88;;;2.70;;
30173;SDS011;16985;50.814;8.530;2023-12-28T01:03:10;4.97;;;2.67;;
30173;SDS011;16985;50.814;8.530;2023-12-28T01:05:35;7.63;;;2.92;;
30173;SDS011;16985;50.814;8.530;2023-12-28T01:08:02;7.07;;;2.75;;
30173;SDS011;16985;50.814;8.530;2023-12-28T01:10:29;5.68;;;3.03;;
30173;SDS011;16985;50.814;8.530;2023-12-28T01:12:55;4.03;;;2.78;;
30173;SDS011;16985;50.814;8.530;2023-12-28T01:15:21;5.53;;;3.40;;
30173;SDS011;16985;50.814;8.530;2023-12-28T01:17:47;3.17;;;2.53;;
30173;SDS011;16985;50.814;8.530;2023-12-28T01:20:13;4.80;;;3.35;;
30173;SDS011;16985;50.814;8.530;2023-12-28T01:22:38;4.47;;;2.75;;
30173;SDS011;16985;50.814;8.530;2023-12-28T01:25:04;4.85;;;3.03;;
30173;SDS011;16985;50.814;8.530;2023-12-28T01:27:31;7.80;;;3.20;;
30173;SDS011;16985;50.814;8.530;2023-12-28T01:29:58;3.70;;;2.67;;
30173;SDS011;16985;50.814;8.530;2023-12-28T01:32:23;6.82;;;2.75;;
30173;SDS011;16985;50.814;8.530;2023-12-28T01:34:49;7.18;;;2.72;;
30173;SDS011;16985;50.814;8.530;2023-12-28T01:37:16;4.63;;;2.95;;
30173;SDS011;16985;50.814;8.530;2023-12-28T01:39:42;4.85;;;2.60;;
30173;SDS011;16985;50.814;8.530;2023-12-28T01:42:09;3.75;;;2.92;;
30173;SDS011;16985;50.814;8.530;2023-12-28T01:44:34;3.95;;;2.88;;
30173;SDS011;16985;50.814;8.530;2023-12-28T01:47:00;8.20;;;2.90;;
30173;SDS011;16985;50.814;8.530;2023-12-28T01:49:26;5.18;;;2.95;;
30173;SDS011;16985;50.814;8.530;2023-12-28T01:51:53;5.07;;;3.20;;
30173;SDS011;16985;50.814;8.530;2023-12-28T01:54:19;5.63;;;3.20;;
30173;SDS011;16985;50.814;8.530;2023-12-28T01:56:46;7.22;;;2.97;;
30173;SDS011;16985;50.814;8.530;2023-12-28T01:59:12;7.25;;;3.03;;
30173;SDS011;16985;50.814;8.530;2023-12-28T02:01:39;4.25;;;2.78;;
30173;SDS011;16985;50.814;8.530;2023-12-28T02:04:05;4.90;;;2.95;;
30173;SDS011;16985;50.814;8.530;2023-12-28T02:06:32;4.13;;;2.70;;
30173;SDS011;16985;50.814;8.530;2023-12-28T02:08:58;12.80;;;2.95;;
30173;SDS011;16985;50.814;8.530;2023-12-28T02:11:24;6.80;;;2.92;;
30173;SDS011;16985;50.814;8.530;2023-12-28T02:13:50;6.20;;;2.55;;
30173;SDS011;16985;50.814;8.530;2023-12-28T02:16:19;4.40;;;2.72;;
30173;SDS011;16985;50.814;8.530;2023-12-28T02:18:51;4.35;;;2.88;;
30173;SDS011;16985;50.814;8.530;2023-12-28T02:21:22;5.35;;;3.05;;
30173;SDS011;16985;50.814;8.530;2023-12-28T02:23:50;4.57;;;2.60;;
30173;SDS011;16985;50.814;8.530;2023-12-28T02:26:16;5.88;;;3.42;;
30173;SDS011;16985;50.814;8.530;2023-12-28T02:28:43;3.78;;;2.42;;
30173;SDS011;16985;50.814;8.530;2023-12-28T02:31:24;9.20;;;3.40;;
30173;SDS011;16985;50.814;8.530;2023-12-28T02:34:07;4.07;;;2.83;;
30173;SDS011;16985;50.814;8.530;2023-12-28T02:36:42;5.90;;;3.15;;
30173;SDS011;16985;50.814;8.530;2023-12-28T02:39:11;4.95;;;2.85;;
30173;SDS011;16985;50.814;8.530;2023-12-28T02:41:42;5.20;;;3.15;;
30173;SDS011;16985;50.814;8.530;2023-12-28T02:46:35;6.55;;;3.63;;
30173;SDS011;16985;50.814;8.530;2023-12-28T02:49:03;3.88;;;2.80;;
30173;SDS011;16985;50.814;8.530;2023-12-28T02:51:31;5.32;;;3.08;;
30173;SDS011;16985;50.814;8.530;2023-12-28T02:53:57;3.47;;;3.05;;
30173;SDS011;16985;50.814;8.530;2023-12-28T02:56:23;5.53;;;3.15;;
30173;SDS011;16985;50.814;8.530;2023-12-28T02:58:49;6.97;;;2.72;;
30173;SDS011;16985;50.814;8.530;2023-12-28T03:01:14;6.80;;;3.80;;
30173;SDS011;16985;50.814;8.530;2023-12-28T03:03:42;5.93;;;3.50;;
30173;SDS011;16985;50.814;8.530;2023-12-28T03:06:07;6.25;;;3.38;;
30173;SDS011;16985;50.814;8.530;2023-12-28T03:08:33;7.85;;;3.55;;
30173;SDS011;16985;50.814;8.530;2023-12-28T03:10:59;7.03;;;3.30;;
30173;SDS011;16985;50.814;8.530;2023-12-28T03:13:25;5.90;;;3.08;;
30173;SDS011;16985;50.814;8.530;2023-12-28T03:15:51;4.07;;;2.97;;
30173;SDS011;16985;50.814;8.530;2023-12-28T03:18:17;4.05;;;2.80;;
30173;SDS011;16985;50.814;8.530;2023-12-28T03:20:43;5.65;;;3.30;;
30173;SDS011;16985;50.814;8.530;2023-12-28T03:23:09;5.90;;;3.50;;
30173;SDS011;16985;50.814;8.530;2023-12-28T03:25:37;5.30;;;2.97;;
30173;SDS011;16985;50.814;8.530;2023-12-28T03:28:03;3.45;;;2.92;;
30173;SDS011;16985;50.814;8.530;2023-12-28T03:30:29;4.22;;;3.08;;
30173;SDS011;16985;50.814;8.530;2023-12-28T03:32:55;3.65;;;2.65;;
30173;SDS011;16985;50.814;8.530;2023-12-28T03:35:21;9.02;;;3.00;;
30173;SDS011;16985;50.814;8.530;2023-12-28T03:37:47;4.85;;;2.85;;
30173;SDS011;16985;50.814;8.530;2023-12-28T03:40:13;7.43;;;3.63;;
30173;SDS011;16985;50.814;8.530;2023-12-28T03:42:39;7.40;;;3.10;;
30173;SDS011;16985;50.814;8.530;2023-12-28T03:45:05;5.97;;;2.85;;
30173;SDS011;16985;50.814;8.530;2023-12-28T03:47:31;4.85;;;2.92;;
30173;SDS011;16985;50.814;8.530;2023-12-28T03:49:57;8.23;;;3.20;;
30173;SDS011;16985;50.814;8.530;2023-12-28T03:52:26;3.35;;;2.30;;
30173;SDS011;16985;50.814;8.530;2023-12-28T03:54:55;4.40;;;3.10;;
30173;SDS011;16985;50.814;8.530;2023-12-28T03:57:21;6.30;;;3.08;;
30173;SDS011;16985;50.814;8.530;2023-12-28T03:59:47;4.72;;;2.95;;
30173;SDS011;16985;50.814;8.530;2023-12-28T04:02:13;6.43;;;3.08;;
30173;SDS011;16985;50.814;8.530;2023-12-28T04:04:39;6.25;;;2.80;;
30173;SDS011;16985;50.814;8.530;2023-12-28T04:07:05;4.30;;;2.90;;
30173;SDS011;16985;50.814;8.530;2023-12-28T04:09:34;6.25;;;2.63;;
30173;SDS011;16985;50.814;8.530;2023-12-28T04:12:00;3.42;;;3.03;;
30173;SDS011;16985;50.814;8.530;2023-12-28T04:14:26;3.80;;;2.83;;
30173;SDS011;16985;50.814;8.530;2023-12-28T04:16:52;3.97;;;3.20;;
30173;SDS011;16985;50.814;8.530;2023-12-28T04:19:18;5.18;;;3.10;;
30173;SDS011;16985;50.814;8.530;2023-12-28T04:21:44;5.13;;;3.55;;
30173;SDS011;16985;50.814;8.530;2023-12-28T04:24:10;4.03;;;3.00;;
30173;SDS011;16985;50.814;8.530;2023-12-28T04:26:36;5.50;;;3.10;;
30173;SDS011;16985;50.814;8.530;2023-12-28T04:29:02;6.53;;;3.72;;
30173;SDS011;16985;50.814;8.530;2023-12-28T04:31:28;4.95;;;3.10;;
30173;SDS011;16985;50.814;8.530;2023-12-28T04:33:54;5.47;;;3.28;;
30173;SDS011;16985;50.814;8.530;2023-12-28T04:36:20;3.90;;;2.90;;
30173;SDS011;16985;50.814;8.530;2023-12-28T04:38:45;5.25;;;3.00;;
30173;SDS011;16985;50.814;8.530;2023-12-28T04:41:12;4.57;;;2.92;;
30173;SDS011;16985;50.814;8.530;2023-12-28T04:43:38;3.17;;;2.58;;
30173;SDS011;16985;50.814;8.530;2023-12-28T04:46:04;9.05;;;3.28;;
30173;SDS011;16985;50.814;8.530;2023-12-28T04:48:34;7.68;;;3.33;;
30173;SDS011;16985;50.814;8.530;2023-12-28T04:51:02;5.63;;;3.25;;
30173;SDS011;16985;50.814;8.530;2023-12-28T04:53:28;4.15;;;3.10;;
30173;SDS011;16985;50.814;8.530;2023-12-28T04:55:55;7.28;;;3.40;;
30173;SDS011;16985;50.814;8.530;2023-12-28T04:58:21;11.23;;;3.17;;
30173;SDS011;16985;50.814;8.530;2023-12-28T05:00:47;4.75;;;3.30;;
30173;SDS011;16985;50.814;8.530;2023-12-28T05:03:13;3.75;;;2.80;;
30173;SDS011;16985;50.814;8.530;2023-12-28T05:05:39;6.05;;;3.25;;
30173;SDS011;16985;50.814;8.530;2023-12-28T05:08:05;6.95;;;3.33;;
30173;SDS011;16985;50.814;8.530;2023-12-28T05:10:31;4.32;;;3.10;;
30173;SDS011;16985;50.814;8.530;2023-12-28T05:12:57;7.75;;;3.45;;
30173;SDS011;16985;50.814;8.530;2023-12-28T05:15:23;4.25;;;3.30;;
30173;SDS011;16985;50.814;8.530;2023-12-28T05:17:49;4.93;;;3.15;;
30173;SDS011;16985;50.814;8.530;2023-12-28T05:20:15;4.25;;;3.42;;
30173;SDS011;16985;50.814;8.530;2023-12-28T05:22:41;9.27;;;3.42;;
30173;SDS011;16985;50.814;8.530;2023-12-28T05:25:07;5.75;;;3.00;;
30173;SDS011;16985;50.814;8.530;2023-12-28T05:27:34;6.10;;;3.03;;
30173;SDS011;16985;50.814;8.530;2023-12-28T05:29:59;7.72;;;3.63;;
30173;SDS011;16985;50.814;8.530;2023-12-28T05:32:25;5.75;;;2.90;;
30173;SDS011;16985;50.814;8.530;2023-12-28T05:34:51;4.75;;;3.13;;
30173;SDS011;16985;50.814;8.530;2023-12-28T05:37:17;4.47;;;2.85;;
30173;SDS011;16985;50.814;8.530;2023-12-28T05:39:43;5.72;;;3.60;;
30173;SDS011;16985;50.814;8.530;2023-12-28T05:42:09;3.28;;;2.67;;
30173;SDS011;16985;50.814;8.530;2023-12-28T05:44:35;4.78;;;3.03;;
30173;SDS011;16985;50.814;8.530;2023-12-28T05:47:01;6.32;;;3.22;;
30173;SDS011;16985;50.814;8.530;2023-12-28T05:49:29;5.20;;;3.00;;
30173;SDS011;16985;50.814;8.530;2023-12-28T05:51:55;8.65;;;3.17;;
30173;SDS011;16985;50.814;8.530;2023-12-28T05:54:21;4.50;;;2.80;;
30173;SDS011;16985;50.814;8.530;2023-12-28T05:56:47;8.65;;;4.25;;
30173;SDS011;16985;50.814;8.530;2023-12-28T05:59:13;6.22;;;3.45;;
30173;SDS011;16985;50.814;8.530;2023-12-28T06:01:42;5.22;;;3.50;;
30173;SDS011;16985;50.814;8.530;2023-12-28T06:04:09;5.30;;;2.95;;
30173;SDS011;16985;50.814;8.530;2023-12-28T06:06:35;5.43;;;2.97;;
30173;SDS011;16985;50.814;8.530;2023-12-28T06:09:01;6.03;;;3.13;;
30173;SDS011;16985;50.814;8.530;2023-12-28T06:11:28;10.77;;;3.17;;
30173;SDS011;16985;50.814;8.530;2023-12-28T06:13:55;4.85;;;3.00;;
30173;SDS011;16985;50.814;8.530;2023-12-28T06:16:21;6.75;;;3.30;;
30173;SDS011;16985;50.814;8.530;2023-12-28T06:18:48;7.13;;;3.65;;
30173;SDS011;16985;50.814;8.530;2023-12-28T06:21:14;7.32;;;4.95;;
30173;SDS011;16985;50.814;8.530;2023-12-28T06:23:40;7.00;;;3.90;;
30173;SDS011;16985;50.814;8.530;2023-12-28T06:26:06;9.95;;;4.07;;
30173;SDS011;16985;50.814;8.530;2023-12-28T06:28:32;9.95;;;3.90;;
30173;SDS011;16985;50.814;8.530;2023-12-28T06:30:58;8.30;;;4.60;;
30173;SDS011;16985;50.814;8.530;2023-12-28T06:33:26;7.63;;;3.65;;
30173;SDS011;16985;50.814;8.530;2023-12-28T06:35:54;8.07;;;3.90;;
30173;SDS011;16985;50.814;8.530;2023-12-28T06:38:20;8.65;;;4.07;;
30173;SDS011;16985;50.814;8.530;2023-12-28T06:40:46;6.10;;;3.40;;
30173;SDS011;16985;50.814;8.530;2023-12-28T06:43:12;12.07;;;4.25;;
30173;SDS011;16985;50.814;8.530;2023-12-28T06:45:38;10.50;;;4.82;;
30173;SDS011;16985;50.814;8.530;2023-12-28T06:48:04;7.13;;;3.70;;
30173;SDS011;16985;50.814;8.530;2023-12-28T06:50:30;6.25;;;4.10;;
30173;SDS011;16985;50.814;8.530;2023-12-28T06:52:56;12.13;;;4.15;;
30173;SDS011;16985;50.814;8.530;2023-12-28T06:55:22;5.55;;;4.05;;
30173;SDS011;16985;50.814;8.530;2023-12-28T06:57:48;6.35;;;3.55;;
30173;SDS011;16985;50.814;8.530;2023-12-28T07:00:14;6.13;;;3.50;;
30173;SDS011;16985;50.814;8.530;2023-12-28T07:02:40;6.78;;;3.83;;
30173;SDS011;16985;50.814;8.530;2023-12-28T07:05:07;7.50;;;3.78;;
30173;SDS011;16985;50.814;8.530;2023-12-28T07:07:33;9.98;;;4.25;;
30173;SDS011;16985;50.814;8.530;2023-12-28T07:09:59;8.82;;;4.57;;
30173;SDS011;16985;50.814;8.530;2023-12-28T07:12:25;11.73;;;4.93;;
30173;SDS011;16985;50.814;8.530;2023-12-28T07:14:51;6.32;;;4.38;;
30173;SDS011;16985;50.814;8.530;2023-12-28T07:17:17;9.40;;;4.55;;
30173;SDS011;16985;50.814;8.530;2023-12-28T07:19:43;7.75;;;3.60;;
30173;SDS011;16985;50.814;8.530;2023-12-28T07:22:09;15.45;;;3.42;;
30173;SDS011;16985;50.814;8.530;2023-12-28T07:24:35;8.13;;;3.72;;
30173;SDS011;16985;50.814;8.530;2023-12-28T07:27:01;7.13;;;3.60;;
30173;SDS011;16985;50.814;8.530;2023-12-28T07:29:27;8.00;;;3.55;;
30173;SDS011;16985;50.814;8.530;2023-12-28T07:31:53;5.55;;;3.20;;
30173;SDS011;16985;50.814;8.530;2023-12-28T07:34:19;9.02;;;3.50;;
30173;SDS011;16985;50.814;8.530;2023-12-28T07:36:45;6.35;;;3.00;;
30173;SDS011;16985;50.814;8.530;2023-12-28T07:39:11;8.10;;;3.00;;
30173;SDS011;16985;50.814;8.530;2023-12-28T07:41:38;6.05;;;3.88;;
30173;SDS011;16985;50.814;8.530;2023-12-28T07:44:04;6.40;;;4.18;;
30173;SDS011;16985;50.814;8.530;2023-12-28T07:46:29;7.82;;;4.68;;
30173;SDS011;16985;50.814;8.530;2023-12-28T07:48:55;6.78;;;3.60;;
30173;SDS011;16985;50.814;8.530;2023-12-28T07:51:21;6.75;;;3.17;;
30173;SDS011;16985;50.814;8.530;2023-12-28T07:53:48;9.38;;;3.60;;
30173;SDS011;16985;50.814;8.530;2023-12-28T07:56:13;7.97;;;3.67;;
30173;SDS011;16985;50.814;8.530;2023-12-28T07:58:40;8.88;;;3.38;;
30173;SDS011;16985;50.814;8.530;2023-12-28T08:01:11;5.38;;;3.05;;
30173;SDS011;16985;50.814;8.530;2023-12-28T08:03:37;7.68;;;4.03;;
30173;SDS011;16985;50.814;8.530;2023-12-28T08:06:04;9.25;;;3.30;;
30173;SDS011;16985;50.814;8.530;2023-12-28T08:08:30;4.93;;;3.00;;
30173;SDS011;16985;50.814;8.530;2023-12-28T08:10:57;5.35;;;2.97;;
30173;SDS011;16985;50.814;8.530;2023-12-28T08:13:23;4.43;;;3.03;;
30173;SDS011;16985;50.814;8.530;2023-12-28T08:15:49;6.85;;;3.00;;
30173;SDS011;16985;50.814;8.530;2023-12-28T08:18:15;7.07;;;3.55;;
30173;SDS011;16985;50.814;8.530;2023-12-28T08:20:41;7.00;;;3.05;;
30173;SDS011;16985;50.814;8.530;2023-12-28T08:23:07;8.52;;;3.53;;
30173;SDS011;16985;50.814;8.530;2023-12-28T08:25:33;7.20;;;2.63;;
30173;SDS011;16985;50.814;8.530;2023-12-28T08:28:00;7.40;;;3.13;;
30173;SDS011;16985;50.814;8.530;2023-12-28T08:30:25;6.15;;;3.38;;
30173;SDS011;16985;50.814;8.530;2023-12-28T08:32:52;13.48;;;3.45;;
30173;SDS011;16985;50.814;8.530;2023-12-28T08:35:18;4.28;;;2.92;;
30173;SDS011;16985;50.814;8.530;2023-12-28T08:37:44;7.35;;;2.90;;
30173;SDS011;16985;50.814;8.530;2023-12-28T08:40:10;4.57;;;3.28;;
30173;SDS011;16985;50.814;8.530;2023-12-28T08:42:36;16.05;;;2.75;;
30173;SDS011;16985;50.814;8.530;2023-12-28T08:45:02;11.40;;;3.42;;
30173;SDS011;16985;50.814;8.530;2023-12-28T08:47:28;3.55;;;2.83;;
30173;SDS011;16985;50.814;8.530;2023-12-28T08:49:55;11.40;;;3.13;;
30173;SDS011;16985;50.814;8.530;2023-12-28T08:52:20;5.68;;;2.97;;
30173;SDS011;16985;50.814;8.530;2023-12-28T08:54:46;11.63;;;3.50;;
30173;SDS011;16985;50.814;8.530;2023-12-28T08:57:12;9.13;;;3.78;;
30173;SDS011;16985;50.814;8.530;2023-12-28T08:59:39;6.68;;;3.10;;
30173;SDS011;16985;50.814;8.530;2023-12-28T09:02:05;8.45;;;3.67;;
30173;SDS011;16985;50.814;8.530;2023-12-28T09:04:32;6.32;;;3.05;;
30173;SDS011;16985;50.814;8.530;2023-12-28T09:06:58;8.02;;;3.60;;
30173;SDS011;16985;50.814;8.530;2023-12-28T09:09:24;5.15;;;3.33;;
30173;SDS011;16985;50.814;8.530;2023-12-28T09:11:50;9.52;;;3.40;;
30173;SDS011;16985;50.814;8.530;2023-12-28T09:14:16;8.60;;;4.30;;
30173;SDS011;16985;50.814;8.530;2023-12-28T09:16:42;9.95;;;3.92;;
30173;SDS011;16985;50.814;8.530;2023-12-28T09:19:09;10.30;;;4.82;;
30173;SDS011;16985;50.814;8.530;2023-12-28T09:21:35;6.80;;;3.28;;
30173;SDS011;16985;50.814;8.530;2023-12-28T09:24:01;6.60;;;3.10;;
30173;SDS011;16985;50.814;8.530;2023-12-28T09:26:27;6.10;;;2.92;;
30173;SDS011;16985;50.814;8.530;2023-12-28T09:28:53;11.63;;;3.10;;
30173;SDS011;16985;50.814;8.530;2023-12-28T09:31:20;5.38;;;2.97;;
30173;SDS011;16985;50.814;8.530;2023-12-28T09:33:46;7.90;;;3.13;;
30173;SDS011;16985;50.814;8.530;2023-12-28T09:36:12;6.82;;;2.97;;
30173;SDS011;16985;50.814;8.530;2023-12-28T09:38:38;7.32;;;2.92;;
30173;SDS011;16985;50.814;8.530;2023-12-28T09:41:11;7.93;;;3.30;;
30173;SDS011;16985;50.814;8.530;2023-12-28T09:43:46;7.88;;;3.00;;
30173;SDS011;16985;50.814;8.530;2023-12-28T09:46:20;10.68;;;2.97;;
30173;SDS011;16985;50.814;8.530;2023-12-28T09:48:46;11.48;;;2.72;;
30173;SDS011;16985;50.814;8.530;2023-12-28T09:51:12;7.32;;;3.30;;
30173;SDS011;16985;50.814;8.530;2023-12-28T09:53:38;6.13;;;2.45;;
30173;SDS011;16985;50.814;8.530;2023-12-28T09:56:04;6.65;;;2.55;;
30173;SDS011;16985;50.814;8.530;2023-12-28T09:58:31;7.07;;;2.83;;
30173;SDS011;16985;50.814;8.530;2023-12-28T10:01:00;6.18;;;2.72;;
30173;SDS011;16985;50.814;8.530;2023-12-28T10:03:27;5.00;;;3.03;;
30173;SDS011;16985;50.814;8.530;2023-12-28T10:05:53;8.18;;;2.67;;
30173;SDS011;16985;50.814;8.530;2023-12-28T10:08:19;8.98;;;3.05;;
30173;SDS011;16985;50.814;8.530;2023-12-28T10:10:45;5.28;;;2.45;;
30173;SDS011;16985;50.814;8.530;2023-12-28T10:13:17;5.65;;;3.17;;
30173;SDS011;16985;50.814;8.530;2023-12-28T10:15:44;6.55;;;2.90;;
30173;SDS011;16985;50.814;8.530;2023-12-28T10:18:10;8.50;;;2.95;;
30173;SDS011;16985;50.814;8.530;2023-12-28T10:20:37;10.63;;;2.65;;
30173;SDS011;16985;50.814;8.530;2023-12-28T10:23:04;6.15;;;2.75;;
30173;SDS011;16985;50.814;8.530;2023-12-28T10:25:31;7.70;;;2.55;;
30173;SDS011;16985;50.814;8.530;2023-12-28T10:27:57;8.95;;;2.90;;
30173;SDS011;16985;50.814;8.530;2023-12-28T10:30:29;5.63;;;2.70;;
30173;SDS011;16985;50.814;8.530;2023-12-28T10:32:55;8.63;;;3.05;;
30173;SDS011;16985;50.814;8.530;2023-12-28T10:35:21;9.40;;;2.80;;
30173;SDS011;16985;50.814;8.530;2023-12-28T10:37:47;11.43;;;3.40;;
30173;SDS011;16985;50.814;8.530;2023-12-28T10:40:18;6.72;;;2.20;;
30173;SDS011;16985;50.814;8.530;2023-12-28T10:43:05;11.43;;;2.58;;
30173;SDS011;16985;50.814;8.530;2023-12-28T10:45:34;9.40;;;2.40;;
30173;SDS011;16985;50.814;8.530;2023-12-28T10:48:06;4.32;;;2.53;;
30173;SDS011;16985;50.814;8.530;2023-12-28T10:50:55;7.53;;;2.78;;
30173;SDS011;16985;50.814;8.530;2023-12-28T10:58:47;4.80;;;2.53;;
30173;SDS011;16985;50.814;8.530;2023-12-28T11:01:39;4.18;;;1.98;;
30173;SDS011;16985;50.814;8.530;2023-12-28T11:04:10;4.13;;;1.92;;
30173;SDS011;16985;50.814;8.530;2023-12-28T11:07:04;9.45;;;2.35;;
30173;SDS011;16985;50.814;8.530;2023-12-28T11:09:32;10.57;;;3.20;;
30173;SDS011;16985;50.814;8.530;2023-12-28T11:12:00;5.55;;;1.77;;
30173;SDS011;16985;50.814;8.530;2023-12-28T11:14:27;5.97;;;2.50;;
30173;SDS011;16985;50.814;8.530;2023-12-28T11:16:54;4.95;;;2.35;;
30173;SDS011;16985;50.814;8.530;2023-12-28T11:19:21;6.03;;;2.30;;
30173;SDS011;16985;50.814;8.530;2023-12-28T11:21:48;4.63;;;2.35;;
30173;SDS011;16985;50.814;8.530;2023-12-28T11:24:16;4.45;;;1.85;;
30173;SDS011;16985;50.814;8.530;2023-12-28T11:26:42;6.10;;;2.40;;
30173;SDS011;16985;50.814;8.530;2023-12-28T11:29:08;5.38;;;2.10;;
30173;SDS011;16985;50.814;8.530;2023-12-28T11:31:35;6.72;;;2.28;;
30173;SDS011;16985;50.814;8.530;2023-12-28T11:34:01;6.10;;;2.17;;
30173;SDS011;16985;50.814;8.530;2023-12-28T11:36:35;3.58;;;2.20;;
30173;SDS011;16985;50.814;8.530;2023-12-28T11:39:07;4.57;;;2.25;;
30173;SDS011;16985;50.814;8.530;2023-12-28T11:41:33;9.63;;;2.10;;
30173;SDS011;16985;50.814;8.530;2023-12-28T11:46:31;6.18;;;2.40;;
30173;SDS011;16985;50.814;8.530;2023-12-28T11:49:04;6.82;;;2.60;;
30173;SDS011;16985;50.814;8.530;2023-12-28T11:51:31;3.78;;;1.60;;
30173;SDS011;16985;50.814;8.530;2023-12-28T11:53:59;8.85;;;2.22;;
30173;SDS011;16985;50.814;8.530;2023-12-28T11:56:25;7.68;;;2.28;;
30173;SDS011;16985;50.814;8.530;2023-12-28T11:58:51;8.40;;;2.13;;
30173;SDS011;16985;50.814;8.530;2023-12-28T12:01:17;4.65;;;2.10;;
30173;SDS011;16985;50.814;8.530;2023-12-28T12:03:44;3.78;;;1.63;;
30173;SDS011;16985;50.814;8.530;2023-12-28T12:06:10;9.13;;;3.00;;
30173;SDS011;16985;50.814;8.530;2023-12-28T12:08:36;6.55;;;2.10;;
30173;SDS011;16985;50.814;8.530;2023-12-28T12:11:02;7.07;;;2.40;;
30173;SDS011;16985;50.814;8.530;2023-12-28T12:13:31;10.93;;;3.10;;
30173;SDS011;16985;50.814;8.530;2023-12-28T12:15:57;7.88;;;2.63;;
30173;SDS011;16985;50.814;8.530;2023-12-28T12:18:24;9.75;;;3.35;;
30173;SDS011;16985;50.814;8.530;2023-12-28T12:20:51;7.97;;;2.53;;
30173;SDS011;16985;50.814;8.530;2023-12-28T12:23:17;4.70;;;2.20;;
30173;SDS011;16985;50.814;8.530;2023-12-28T12:25:43;7.53;;;2.75;;
30173;SDS011;16985;50.814;8.530;2023-12-28T12:28:10;6.15;;;1.73;;
30173;SDS011;16985;50.814;8.530;2023-12-28T12:30:36;8.05;;;2.00;;
30173;SDS011;16985;50.814;8.530;2023-12-28T12:33:03;4.00;;;1.90;;
30173;SDS011;16985;50.814;8.530;2023-12-28T12:35:30;5.75;;;1.90;;
30173;SDS011;16985;50.814;8.530;2023-12-28T12:37:57;11.98;;;2.53;;
30173;SDS011;16985;50.814;8.530;2023-12-28T12:40:24;4.22;;;1.65;;
30173;SDS011;16985;50.814;8.530;2023-12-28T12:42:54;9.25;;;2.42;;
30173;SDS011;16985;50.814;8.530;2023-12-28T12:45:20;6.45;;;2.47;;
30173;SDS011;16985;50.814;8.530;2023-12-28T12:47:47;6.10;;;1.80;;
30173;SDS011;16985;50.814;8.530;2023-12-28T12:50:15;9.25;;;1.90;;
30173;SDS011;16985;50.814;8.530;2023-12-28T12:52:41;4.32;;;2.03;;
30173;SDS011;16985;50.814;8.530;2023-12-28T12:55:10;4.50;;;2.35;;
30173;SDS011;16985;50.814;8.530;2023-12-28T12:57:37;9.18;;;2.65;;
30173;SDS011;16985;50.814;8.530;2023-12-28T13:00:08;5.78;;;1.73;;
30173;SDS011;16985;50.814;8.530;2023-12-28T13:02:36;9.90;;;2.53;;
30173;SDS011;16985;50.814;8.530;2023-12-28T13:05:02;5.63;;;2.00;;
30173;SDS011;16985;50.814;8.530;2023-12-28T13:07:33;5.65;;;2.40;;
30173;SDS011;16985;50.814;8.530;2023-12-28T13:09:59;4.25;;;1.60;;
30173;SDS011;16985;50.814;8.530;2023-12-28T13:12:26;9.52;;;2.05;;
30173;SDS011;16985;50.814;8.530;2023-12-28T13:14:51;14.73;;;2.67;;
30173;SDS011;16985;50.814;8.530;2023-12-28T13:17:17;4.93;;;1.80;;
30173;SDS011;16985;50.814;8.530;2023-12-28T13:19:43;5.93;;;1.80;;
30173;SDS011;16985;50.814;8.530;2023-12-28T13:22:10;7.13;;;2.10;;
30173;SDS011;16985;50.814;8.530;2023-12-28T13:24:35;10.68;;;2.20;;
30173;SDS011;16985;50.814;8.530;2023-12-28T13:27:01;6.68;;;1.85;;
30173;SDS011;16985;50.814;8.530;2023-12-28T13:29:28;7.45;;;2.58;;
30173;SDS011;16985;50.814;8.530;2023-12-28T13:31:55;10.90;;;2.40;;
30173;SDS011;16985;50.814;8.530;2023-12-28T13:34:20;3.53;;;1.88;;
30173;SDS011;16985;50.814;8.530;2023-12-28T13:36:48;8.00;;;2.10;;
30173;SDS011;16985;50.814;8.530;2023-12-28T13:39:14;5.85;;;2.10;;
30173;SDS011;16985;50.814;8.530;2023-12-28T13:41:40;5.22;;;1.60;;
30173;SDS011;16985;50.814;8.530;2023-12-28T13:44:07;11.00;;;2.10;;
30173;SDS011;16985;50.814;8.530;2023-12-28T13:46:40;8.85;;;1.85;;
30173;SDS011;16985;50.814;8.530;2023-12-28T13:49:06;10.32;;;2.13;;
30173;SDS011;16985;50.814;8.530;2023-12-28T13:51:35;5.07;;;1.95;;
30173;SDS011;16985;50.814;8.530;2023-12-28T13:54:01;6.63;;;1.85;;
30173;SDS011;16985;50.814;8.530;2023-12-28T13:56:28;7.38;;;2.15;;
30173;SDS011;16985;50.814;8.530;2023-12-28T13:58:54;6.07;;;2.17;;
30173;SDS011;16985;50.814;8.530;2023-12-28T14:01:20;5.07;;;2.03;;
30173;SDS011;16985;50.814;8.530;2023-12-28T14:03:46;9.90;;;2.50;;
30173;SDS011;16985;50.814;8.530;2023-12-28T14:06:16;9.50;;;2.28;;
30173;SDS011;16985;50.814;8.530;2023-12-28T14:08:43;6.10;;;2.42;;
30173;SDS011;16985;50.814;8.530;2023-12-28T14:11:09;3.38;;;1.95;;
30173;SDS011;16985;50.814;8.530;2023-12-28T14:13:35;5.93;;;1.70;;
30173;SDS011;16985;50.814;8.530;2023-12-28T14:16:02;7.25;;;2.35;;
30173;SDS011;16985;50.814;8.530;2023-12-28T14:18:29;6.88;;;2.25;;
30173;SDS011;16985;50.814;8.530;2023-12-28T14:20:55;9.90;;;2.38;;
30173;SDS011;16985;50.814;8.530;2023-12-28T14:23:21;5.32;;;2.40;;
30173;SDS011;16985;50.814;8.530;2023-12-28T14:25:48;5.55;;;2.00;;
30173;SDS011;16985;50.814;8.530;2023-12-28T14:28:18;4.75;;;1.80;;
30173;SDS011;16985;50.814;8.530;2023-12-28T14:30:46;4.43;;;2.20;;
30173;SDS011;16985;50.814;8.530;2023-12-28T14:33:13;4.15;;;1.83;;
30173;SDS011;16985;50.814;8.530;2023-12-28T14:35:39;9.05;;;1.98;;
30173;SDS011;16985;50.814;8.530;2023-12-28T14:38:06;6.40;;;2.03;;
30173;SDS011;16985;50.814;8.530;2023-12-28T14:40:33;5.63;;;1.55;;
30173;SDS011;16985;50.814;8.530;2023-12-28T14:42:59;9.50;;;2.28;;
30173;SDS011;16985;50.814;8.530;2023-12-28T14:45:25;6.22;;;2.20;;
30173;SDS011;16985;50.814;8.530;2023-12-28T14:47:51;8.38;;;2.80;;
30173;SDS011;16985;50.814;8.530;2023-12-28T14:50:16;8.15;;;2.45;;
30173;SDS011;16985;50.814;8.530;2023-12-28T14:52:43;8.60;;;2.20;;
30173;SDS011;16985;50.814;8.530;2023-12-28T14:55:09;8.00;;;2.58;;
30173;SDS011;16985;50.814;8.530;2023-12-28T14:57:35;6.97;;;2.42;;